Grizzly Air Cargo 5377


PADL
Dillingham Airport
Dillingham, Alaska, US
PAKN
King Salmon Airport
King Salmon, Alaska, US

Activity Log

Date Flight Route Aircraft Duration
11/29/2020 GRZ5377 DLG V453 AKN SF34 0h 50m

Route Details

Aircraft Information
Primary: Saab 340AF
Backup: Not Available
Route Data
Distance: 73nm
Sched. Duration: 0h 30m
Avg. Duration: 0h 50m (+20m)
Times Flown: 1
Recm'd Route: DLG V453 AKN
Planned Altitude: 11,000ft
Origin Wx: PADL 230556Z 17010G17KT 10SM -RA OVC011 01/01 A2958 RMK AO2 SLP021 P0003 60029 T00060006 10028 20006 55010
Dest. Wx: PAKN 230554Z 18013KT 6SM -RA BR FEW022 OVC032 03/01 A2959 RMK AO2 SLP022 P0005 60006 T00280011 10061 20028 56013
Notes:

Financial History
Total Freight: 7,650lbs
Average Load: 7,650lbs/flt
Fuel Used: 478lbs
Avg. Fuel Used: 478lbs/flt
Fuel Expense: $569
Avg. Fuel Expense: $569
Avg. Fuel Cost: $1.19/lbs
Total Gross Income: $15,912
Pilot Pay: $229
Total Expenses: $1,770
Total Revenue: $13,458
Average Revenue: $15,912.00